This is the latest recevied weather packets stored in our database for station/object SA6GOM-3. If no packets are shown the sender has not sent any weather packets the latest 10 day(s).
| Time | Temp. | Humidity | Pressure | Rain* | Wind** | Luminosity | Snow |
|---|---|---|---|---|---|---|---|
| 1777552534 | 16.11° C | 54% | 1030.2 hPa | - | - | - | - |
| 1777548934 | 17.78° C | 49% | 1030.3 hPa | - | - | - | - |
| 1777545334 | 17.78° C | 53% | 1030.5 hPa | - | - | - | - |
| 1777541734 | 18.89° C | 48% | 1030.7 hPa | - | - | - | - |
| 1777538134 | 23.89° C | 35% | 1030.7 hPa | - | - | - | - |
| 1777534534 | 22.78° C | 40% | 1030.4 hPa | - | - | - | - |
| 1777530934 | 25° C | 34% | 1030.2 hPa | - | - | - | - |
| 1777527334 | 25° C | 34% | 1030 hPa | - | - | - | - |
| 1777523734 | 8.89° C | 67% | 1030.2 hPa | - | - | - | - |
| 1777520133 | 4.44° C | 83% | 1030.2 hPa | - | - | - | - |
| 1777516533 | 4.44° C | 83% | 1030.4 hPa | - | - | - | - |
| 1777512933 | 2.78° C | 76% | 1030.3 hPa | - | - | - | - |
| 1777509333 | 3.33° C | 75% | 1030.6 hPa | - | - | - | - |
| 1777505733 | 3.33° C | 75% | 1030.9 hPa | - | - | - | - |
| 1777502133 | 6.11° C | 74% | 1031.1 hPa | - | - | - | - |
| 1777498533 | 6.11° C | 68% | 1030.7 hPa | - | - | - | - |
| 1777494933 | 7.78° C | 67% | 1030.8 hPa | - | - | - | - |
| 1777491333 | 8.33° C | 65% | 1030.5 hPa | - | - | - | - |
| 1777487732 | 10.56° C | 59% | 1030.2 hPa | - | - | - | - |
| 1777484149 | 13.33° C | 51% | 1030 hPa | - | - | - | - |
| 1777480549 | 15.56° C | 40% | 1030.1 hPa | - | - | - | - |
| 1777476949 | 16.67° C | 34% | 1029.9 hPa | - | - | - | - |
| 1777473349 | 20.56° C | 30% | 1030.1 hPa | - | - | - | - |
| 1777469748 | 20.56° C | 34% | 1030.5 hPa | - | - | - | - |
| 1777466148 | 20° C | 33% | 1030.3 hPa | - | - | - | - |
* Rain since midnight (hover to see other rain measurements)
** Current wind speed in m/s (hover to see current wind gust speed)